sensor_id;sensor_type;location;lat;lon;timestamp;temperature;humidity
19258;DHT22;9763;48.780;9.212;2024-01-10T00:02:44;-0.20;75.20
19258;DHT22;9763;48.780;9.212;2024-01-10T00:06:10;-0.20;76.10
19258;DHT22;9763;48.780;9.212;2024-01-10T00:09:35;-0.10;76.90
19258;DHT22;9763;48.780;9.212;2024-01-10T00:12:59;0.00;77.50
19258;DHT22;9763;48.780;9.212;2024-01-10T00:16:23;0.00;77.70
19258;DHT22;9763;48.780;9.212;2024-01-10T00:19:46;0.00;77.50
19258;DHT22;9763;48.780;9.212;2024-01-10T00:23:10;0.10;77.50
19258;DHT22;9763;48.780;9.212;2024-01-10T00:26:35;0.10;77.10
19258;DHT22;9763;48.780;9.212;2024-01-10T00:29:59;0.10;76.30
19258;DHT22;9763;48.780;9.212;2024-01-10T00:33:23;0.00;76.00
19258;DHT22;9763;48.780;9.212;2024-01-10T00:36:46;0.10;75.70
19258;DHT22;9763;48.780;9.212;2024-01-10T00:40:10;0.00;75.60
19258;DHT22;9763;48.780;9.212;2024-01-10T00:43:35;0.00;75.70
19258;DHT22;9763;48.780;9.212;2024-01-10T00:46:59;0.00;75.40
19258;DHT22;9763;48.780;9.212;2024-01-10T00:50:22;0.00;75.20
19258;DHT22;9763;48.780;9.212;2024-01-10T00:53:46;0.00;75.30
19258;DHT22;9763;48.780;9.212;2024-01-10T00:57:10;-0.10;75.10
19258;DHT22;9763;48.780;9.212;2024-01-10T01:00:35;-0.10;75.10
19258;DHT22;9763;48.780;9.212;2024-01-10T01:03:58;-0.10;75.00
19258;DHT22;9763;48.780;9.212;2024-01-10T01:07:22;-0.10;75.00
19258;DHT22;9763;48.780;9.212;2024-01-10T01:10:45;-0.10;75.20
19258;DHT22;9763;48.780;9.212;2024-01-10T01:14:09;-0.10;75.30
19258;DHT22;9763;48.780;9.212;2024-01-10T01:17:34;-0.10;75.20
19258;DHT22;9763;48.780;9.212;2024-01-10T01:20:58;-0.10;75.40
19258;DHT22;9763;48.780;9.212;2024-01-10T01:24:21;-0.10;75.10
19258;DHT22;9763;48.780;9.212;2024-01-10T01:27:45;-0.10;75.30
19258;DHT22;9763;48.780;9.212;2024-01-10T01:31:09;-0.10;75.30
19258;DHT22;9763;48.780;9.212;2024-01-10T01:34:34;-0.10;75.50
19258;DHT22;9763;48.780;9.212;2024-01-10T01:37:57;0.00;75.50
19258;DHT22;9763;48.780;9.212;2024-01-10T01:41:21;0.00;75.40
19258;DHT22;9763;48.780;9.212;2024-01-10T01:44:44;0.00;75.40
19258;DHT22;9763;48.780;9.212;2024-01-10T01:48:08;0.00;75.50
19258;DHT22;9763;48.780;9.212;2024-01-10T01:51:35;0.00;75.40
19258;DHT22;9763;48.780;9.212;2024-01-10T01:54:59;0.00;75.40
19258;DHT22;9763;48.780;9.212;2024-01-10T01:58:24;0.00;75.60
19258;DHT22;9763;48.780;9.212;2024-01-10T02:01:47;0.00;75.50
19258;DHT22;9763;48.780;9.212;2024-01-10T02:05:12;0.00;75.40
19258;DHT22;9763;48.780;9.212;2024-01-10T02:08:39;0.00;75.30
19258;DHT22;9763;48.780;9.212;2024-01-10T02:12:03;0.10;75.10
19258;DHT22;9763;48.780;9.212;2024-01-10T02:15:27;0.00;75.20
19258;DHT22;9763;48.780;9.212;2024-01-10T02:18:51;0.10;74.90
19258;DHT22;9763;48.780;9.212;2024-01-10T02:22:15;0.00;74.70
19258;DHT22;9763;48.780;9.212;2024-01-10T02:25:40;0.00;74.50
19258;DHT22;9763;48.780;9.212;2024-01-10T02:29:04;0.00;74.50
19258;DHT22;9763;48.780;9.212;2024-01-10T02:32:28;0.00;74.40
19258;DHT22;9763;48.780;9.212;2024-01-10T02:35:52;-0.10;74.20
19258;DHT22;9763;48.780;9.212;2024-01-10T02:39:16;-0.10;74.10
19258;DHT22;9763;48.780;9.212;2024-01-10T02:42:41;-0.10;74.00
19258;DHT22;9763;48.780;9.212;2024-01-10T02:46:05;-0.20;73.80
19258;DHT22;9763;48.780;9.212;2024-01-10T02:49:28;-0.20;73.80
19258;DHT22;9763;48.780;9.212;2024-01-10T02:52:52;-0.20;73.60
19258;DHT22;9763;48.780;9.212;2024-01-10T02:56:15;-0.20;73.40
19258;DHT22;9763;48.780;9.212;2024-01-10T02:59:40;-0.30;73.50
19258;DHT22;9763;48.780;9.212;2024-01-10T03:03:04;-0.30;73.50
19258;DHT22;9763;48.780;9.212;2024-01-10T03:06:28;-0.30;73.70
19258;DHT22;9763;48.780;9.212;2024-01-10T03:09:52;-0.30;73.90
19258;DHT22;9763;48.780;9.212;2024-01-10T03:13:15;-0.30;74.20
19258;DHT22;9763;48.780;9.212;2024-01-10T03:16:40;-0.20;74.40
19258;DHT22;9763;48.780;9.212;2024-01-10T03:20:05;-0.20;74.50
19258;DHT22;9763;48.780;9.212;2024-01-10T03:23:30;-0.20;75.60
19258;DHT22;9763;48.780;9.212;2024-01-10T03:26:54;-0.20;74.80
19258;DHT22;9763;48.780;9.212;2024-01-10T03:30:17;-0.10;75.00
19258;DHT22;9763;48.780;9.212;2024-01-10T03:33:43;-0.10;75.00
19258;DHT22;9763;48.780;9.212;2024-01-10T03:37:07;-0.10;75.00
19258;DHT22;9763;48.780;9.212;2024-01-10T03:40:31;-0.10;75.10
19258;DHT22;9763;48.780;9.212;2024-01-10T03:43:54;0.00;75.30
19258;DHT22;9763;48.780;9.212;2024-01-10T03:47:18;0.00;75.50
19258;DHT22;9763;48.780;9.212;2024-01-10T03:50:43;0.00;75.30
19258;DHT22;9763;48.780;9.212;2024-01-10T03:54:07;0.00;75.30
19258;DHT22;9763;48.780;9.212;2024-01-10T03:57:30;0.10;75.40
19258;DHT22;9763;48.780;9.212;2024-01-10T04:00:54;0.10;75.50
19258;DHT22;9763;48.780;9.212;2024-01-10T04:04:18;0.10;75.40
19258;DHT22;9763;48.780;9.212;2024-01-10T04:07:43;0.10;75.40
19258;DHT22;9763;48.780;9.212;2024-01-10T04:11:07;0.10;75.20
19258;DHT22;9763;48.780;9.212;2024-01-10T04:14:31;0.10;75.30
19258;DHT22;9763;48.780;9.212;2024-01-10T04:17:54;0.20;75.40
19258;DHT22;9763;48.780;9.212;2024-01-10T04:21:18;0.20;75.30
19258;DHT22;9763;48.780;9.212;2024-01-10T04:24:43;0.20;75.40
19258;DHT22;9763;48.780;9.212;2024-01-10T04:28:07;0.20;75.20
19258;DHT22;9763;48.780;9.212;2024-01-10T04:31:30;0.20;75.20
19258;DHT22;9763;48.780;9.212;2024-01-10T04:34:54;0.20;75.30
19258;DHT22;9763;48.780;9.212;2024-01-10T04:38:18;0.20;75.40
19258;DHT22;9763;48.780;9.212;2024-01-10T04:41:43;0.20;75.50
19258;DHT22;9763;48.780;9.212;2024-01-10T04:45:07;0.30;75.60
19258;DHT22;9763;48.780;9.212;2024-01-10T04:48:31;0.30;75.80
19258;DHT22;9763;48.780;9.212;2024-01-10T04:51:56;0.30;75.60
19258;DHT22;9763;48.780;9.212;2024-01-10T04:55:19;0.30;75.50
19258;DHT22;9763;48.780;9.212;2024-01-10T04:58:44;0.30;75.30
19258;DHT22;9763;48.780;9.212;2024-01-10T05:02:08;0.30;75.10
19258;DHT22;9763;48.780;9.212;2024-01-10T05:05:32;0.30;75.30
19258;DHT22;9763;48.780;9.212;2024-01-10T05:08:56;0.30;75.20
19258;DHT22;9763;48.780;9.212;2024-01-10T05:12:20;0.30;75.30
19258;DHT22;9763;48.780;9.212;2024-01-10T05:15:45;0.30;75.30
19258;DHT22;9763;48.780;9.212;2024-01-10T05:19:08;0.30;75.30
19258;DHT22;9763;48.780;9.212;2024-01-10T05:22:32;0.20;75.00
19258;DHT22;9763;48.780;9.212;2024-01-10T05:25:56;0.20;75.10
19258;DHT22;9763;48.780;9.212;2024-01-10T05:29:20;0.20;75.00
19258;DHT22;9763;48.780;9.212;2024-01-10T05:32:47;0.20;74.90
19258;DHT22;9763;48.780;9.212;2024-01-10T05:36:11;0.20;74.90
19258;DHT22;9763;48.780;9.212;2024-01-10T05:39:34;0.20;74.90
19258;DHT22;9763;48.780;9.212;2024-01-10T05:42:58;0.10;74.70
19258;DHT22;9763;48.780;9.212;2024-01-10T05:46:22;0.10;74.70
19258;DHT22;9763;48.780;9.212;2024-01-10T05:49:47;0.10;74.50
19258;DHT22;9763;48.780;9.212;2024-01-10T05:53:11;0.10;74.30
19258;DHT22;9763;48.780;9.212;2024-01-10T05:56:39;0.50;74.70
19258;DHT22;9763;48.780;9.212;2024-01-10T06:00:03;0.00;74.20
19258;DHT22;9763;48.780;9.212;2024-01-10T06:03:31;0.10;74.50
19258;DHT22;9763;48.780;9.212;2024-01-10T06:06:58;0.10;74.30
19258;DHT22;9763;48.780;9.212;2024-01-10T06:10:22;0.10;74.50
19258;DHT22;9763;48.780;9.212;2024-01-10T06:13:46;0.10;74.50
19258;DHT22;9763;48.780;9.212;2024-01-10T06:17:18;0.10;74.50
19258;DHT22;9763;48.780;9.212;2024-01-10T06:20:42;0.10;75.00
19258;DHT22;9763;48.780;9.212;2024-01-10T06:24:07;0.10;74.10
19258;DHT22;9763;48.780;9.212;2024-01-10T06:27:30;0.10;73.80
19258;DHT22;9763;48.780;9.212;2024-01-10T06:30:54;0.10;73.70
19258;DHT22;9763;48.780;9.212;2024-01-10T06:34:17;0.10;73.60
19258;DHT22;9763;48.780;9.212;2024-01-10T06:37:41;0.00;73.30
19258;DHT22;9763;48.780;9.212;2024-01-10T06:41:09;0.00;73.10
19258;DHT22;9763;48.780;9.212;2024-01-10T06:44:32;-0.10;72.90
19258;DHT22;9763;48.780;9.212;2024-01-10T06:47:56;-0.10;72.90
19258;DHT22;9763;48.780;9.212;2024-01-10T06:51:19;-0.10;72.90
19258;DHT22;9763;48.780;9.212;2024-01-10T06:54:43;-0.20;72.70
19258;DHT22;9763;48.780;9.212;2024-01-10T06:58:08;-0.20;72.80
19258;DHT22;9763;48.780;9.212;2024-01-10T07:01:32;-0.20;72.70
19258;DHT22;9763;48.780;9.212;2024-01-10T07:04:55;-0.30;72.50
19258;DHT22;9763;48.780;9.212;2024-01-10T07:08:19;-0.30;72.40
19258;DHT22;9763;48.780;9.212;2024-01-10T07:11:42;-0.40;72.10
19258;DHT22;9763;48.780;9.212;2024-01-10T07:15:09;-0.40;72.20
19258;DHT22;9763;48.780;9.212;2024-01-10T07:18:33;-0.50;72.20
19258;DHT22;9763;48.780;9.212;2024-01-10T07:21:57;-0.50;72.30
19258;DHT22;9763;48.780;9.212;2024-01-10T07:25:20;-0.50;72.20
19258;DHT22;9763;48.780;9.212;2024-01-10T07:28:47;-0.60;72.00
19258;DHT22;9763;48.780;9.212;2024-01-10T07:32:12;-0.60;72.00
19258;DHT22;9763;48.780;9.212;2024-01-10T07:35:36;-0.60;72.00
19258;DHT22;9763;48.780;9.212;2024-01-10T07:39:00;-0.70;72.10
19258;DHT22;9763;48.780;9.212;2024-01-10T07:42:26;-0.70;72.40
19258;DHT22;9763;48.780;9.212;2024-01-10T07:45:50;-0.70;72.60
19258;DHT22;9763;48.780;9.212;2024-01-10T07:49:14;-0.70;72.80
19258;DHT22;9763;48.780;9.212;2024-01-10T07:52:39;-0.70;72.90
19258;DHT22;9763;48.780;9.212;2024-01-10T07:56:03;-0.60;73.60
19258;DHT22;9763;48.780;9.212;2024-01-10T07:59:27;-0.60;73.70
19258;DHT22;9763;48.780;9.212;2024-01-10T08:02:51;-0.50;73.70
19258;DHT22;9763;48.780;9.212;2024-01-10T08:06:16;-0.50;73.90
19258;DHT22;9763;48.780;9.212;2024-01-10T08:09:50;-0.40;74.60
19258;DHT22;9763;48.780;9.212;2024-01-10T08:13:14;-0.30;74.50
19258;DHT22;9763;48.780;9.212;2024-01-10T08:16:38;-0.20;75.20
19258;DHT22;9763;48.780;9.212;2024-01-10T08:20:02;-0.20;75.50
19258;DHT22;9763;48.780;9.212;2024-01-10T08:23:28;-0.10;76.00
19258;DHT22;9763;48.780;9.212;2024-01-10T08:26:51;0.40;76.40
19258;DHT22;9763;48.780;9.212;2024-01-10T08:30:16;0.20;76.30
19258;DHT22;9763;48.780;9.212;2024-01-10T08:33:40;0.30;76.50
19258;DHT22;9763;48.780;9.212;2024-01-10T08:37:04;0.40;76.60
19258;DHT22;9763;48.780;9.212;2024-01-10T08:40:29;0.50;76.60
19258;DHT22;9763;48.780;9.212;2024-01-10T08:43:56;0.60;76.90
19258;DHT22;9763;48.780;9.212;2024-01-10T08:47:19;0.70;77.00
19258;DHT22;9763;48.780;9.212;2024-01-10T08:50:44;0.70;76.70
19258;DHT22;9763;48.780;9.212;2024-01-10T08:54:07;0.80;76.40
19258;DHT22;9763;48.780;9.212;2024-01-10T08:57:33;0.80;76.10
19258;DHT22;9763;48.780;9.212;2024-01-10T09:00:57;0.90;76.20
19258;DHT22;9763;48.780;9.212;2024-01-10T09:04:20;0.90;76.00
19258;DHT22;9763;48.780;9.212;2024-01-10T09:07:44;0.90;75.80
19258;DHT22;9763;48.780;9.212;2024-01-10T09:11:08;0.80;75.30
19258;DHT22;9763;48.780;9.212;2024-01-10T09:14:34;0.80;75.50
19258;DHT22;9763;48.780;9.212;2024-01-10T09:17:58;0.80;75.40
19258;DHT22;9763;48.780;9.212;2024-01-10T09:21:22;1.60;76.30
19258;DHT22;9763;48.780;9.212;2024-01-10T09:24:46;0.80;75.40
19258;DHT22;9763;48.780;9.212;2024-01-10T09:28:11;0.80;75.60
19258;DHT22;9763;48.780;9.212;2024-01-10T09:31:36;0.80;75.60
19258;DHT22;9763;48.780;9.212;2024-01-10T09:35:00;0.80;75.50
19258;DHT22;9763;48.780;9.212;2024-01-10T09:38:24;0.80;75.50
19258;DHT22;9763;48.780;9.212;2024-01-10T09:41:49;0.80;75.60
19258;DHT22;9763;48.780;9.212;2024-01-10T09:45:15;0.80;75.80
19258;DHT22;9763;48.780;9.212;2024-01-10T09:48:42;0.80;75.80
19258;DHT22;9763;48.780;9.212;2024-01-10T09:52:08;0.90;75.80
19258;DHT22;9763;48.780;9.212;2024-01-10T09:55:35;0.90;76.00
19258;DHT22;9763;48.780;9.212;2024-01-10T09:59:02;0.90;76.20
19258;DHT22;9763;48.780;9.212;2024-01-10T10:02:28;1.00;76.10
19258;DHT22;9763;48.780;9.212;2024-01-10T10:05:53;1.00;76.20
19258;DHT22;9763;48.780;9.212;2024-01-10T10:09:17;1.00;76.20
19258;DHT22;9763;48.780;9.212;2024-01-10T10:12:42;1.10;76.70
19258;DHT22;9763;48.780;9.212;2024-01-10T10:16:07;1.10;76.80
19258;DHT22;9763;48.780;9.212;2024-01-10T10:19:35;1.10;76.80
19258;DHT22;9763;48.780;9.212;2024-01-10T10:23:05;1.20;76.90
19258;DHT22;9763;48.780;9.212;2024-01-10T10:26:33;1.30;77.50
19258;DHT22;9763;48.780;9.212;2024-01-10T10:29:58;1.30;77.10
19258;DHT22;9763;48.780;9.212;2024-01-10T10:33:21;1.40;77.40
19258;DHT22;9763;48.780;9.212;2024-01-10T10:36:45;1.40;77.60
19258;DHT22;9763;48.780;9.212;2024-01-10T10:40:11;1.50;77.70
19258;DHT22;9763;48.780;9.212;2024-01-10T10:43:37;1.60;77.50
19258;DHT22;9763;48.780;9.212;2024-01-10T10:47:04;1.60;77.60
19258;DHT22;9763;48.780;9.212;2024-01-10T10:50:35;1.60;77.70
19258;DHT22;9763;48.780;9.212;2024-01-10T10:53:59;1.80;79.10
19258;DHT22;9763;48.780;9.212;2024-01-10T10:57:26;2.60;82.30
19258;DHT22;9763;48.780;9.212;2024-01-10T11:00:51;2.80;88.20
19258;DHT22;9763;48.780;9.212;2024-01-10T11:07:42;3.50;91.80
19258;DHT22;9763;48.780;9.212;2024-01-10T11:11:15;5.40;94.70
19258;DHT22;9763;48.780;9.212;2024-01-10T11:15:02;6.30;94.30
19258;DHT22;9763;48.780;9.212;2024-01-10T11:18:59;7.20;92.30
19258;DHT22;9763;48.780;9.212;2024-01-10T11:22:53;7.70;84.20
19258;DHT22;9763;48.780;9.212;2024-01-10T11:26:27;7.60;78.50
19258;DHT22;9763;48.780;9.212;2024-01-10T11:29:52;7.30;75.50
19258;DHT22;9763;48.780;9.212;2024-01-10T11:33:21;6.80;73.00
19258;DHT22;9763;48.780;9.212;2024-01-10T11:37:10;6.30;73.00
19258;DHT22;9763;48.780;9.212;2024-01-10T11:40:47;5.80;72.40
19258;DHT22;9763;48.780;9.212;2024-01-10T11:44:26;5.30;72.60
19258;DHT22;9763;48.780;9.212;2024-01-10T11:47:52;4.90;73.50
19258;DHT22;9763;48.780;9.212;2024-01-10T11:51:16;4.60;74.30
19258;DHT22;9763;48.780;9.212;2024-01-10T11:54:42;4.30;75.00
19258;DHT22;9763;48.780;9.212;2024-01-10T11:58:09;4.00;75.60
19258;DHT22;9763;48.780;9.212;2024-01-10T12:01:35;3.80;75.90
19258;DHT22;9763;48.780;9.212;2024-01-10T12:05:02;3.70;76.40
19258;DHT22;9763;48.780;9.212;2024-01-10T12:08:26;3.50;76.70
19258;DHT22;9763;48.780;9.212;2024-01-10T12:11:50;3.40;77.00
19258;DHT22;9763;48.780;9.212;2024-01-10T12:15:14;3.30;77.10
19258;DHT22;9763;48.780;9.212;2024-01-10T12:18:38;3.30;77.20
19258;DHT22;9763;48.780;9.212;2024-01-10T12:22:03;3.20;77.50
19258;DHT22;9763;48.780;9.212;2024-01-10T12:25:29;3.10;77.80
19258;DHT22;9763;48.780;9.212;2024-01-10T12:28:54;3.10;78.00
19258;DHT22;9763;48.780;9.212;2024-01-10T12:32:18;3.00;77.90
19258;DHT22;9763;48.780;9.212;2024-01-10T12:35:44;3.20;78.50
19258;DHT22;9763;48.780;9.212;2024-01-10T12:39:28;2.90;78.30
19258;DHT22;9763;48.780;9.212;2024-01-10T12:43:02;2.90;78.10
19258;DHT22;9763;48.780;9.212;2024-01-10T12:46:26;2.80;79.00
19258;DHT22;9763;48.780;9.212;2024-01-10T12:49:50;2.80;78.60
19258;DHT22;9763;48.780;9.212;2024-01-10T12:53:13;2.80;78.70
19258;DHT22;9763;48.780;9.212;2024-01-10T12:56:39;2.70;78.90
19258;DHT22;9763;48.780;9.212;2024-01-10T13:00:03;2.70;78.60
19258;DHT22;9763;48.780;9.212;2024-01-10T13:03:29;2.70;79.00
19258;DHT22;9763;48.780;9.212;2024-01-10T13:06:54;2.70;79.20
19258;DHT22;9763;48.780;9.212;2024-01-10T13:10:17;2.70;79.20
19258;DHT22;9763;48.780;9.212;2024-01-10T13:13:42;2.70;79.40
19258;DHT22;9763;48.780;9.212;2024-01-10T13:17:07;2.70;79.20
19258;DHT22;9763;48.780;9.212;2024-01-10T13:20:30;2.70;79.40
19258;DHT22;9763;48.780;9.212;2024-01-10T13:23:54;2.70;79.30
19258;DHT22;9763;48.780;9.212;2024-01-10T13:27:18;2.70;79.40
19258;DHT22;9763;48.780;9.212;2024-01-10T13:30:44;2.70;79.50
19258;DHT22;9763;48.780;9.212;2024-01-10T13:34:09;2.70;79.60
19258;DHT22;9763;48.780;9.212;2024-01-10T13:37:33;2.70;79.50
19258;DHT22;9763;48.780;9.212;2024-01-10T13:40:57;2.70;79.40
19258;DHT22;9763;48.780;9.212;2024-01-10T13:44:21;2.70;80.60
19258;DHT22;9763;48.780;9.212;2024-01-10T13:47:46;2.70;79.70
19258;DHT22;9763;48.780;9.212;2024-01-10T13:51:11;2.70;79.80
19258;DHT22;9763;48.780;9.212;2024-01-10T13:54:34;2.70;79.90
19258;DHT22;9763;48.780;9.212;2024-01-10T13:57:58;2.70;79.80
19258;DHT22;9763;48.780;9.212;2024-01-10T14:01:22;2.70;79.70
19258;DHT22;9763;48.780;9.212;2024-01-10T14:04:47;2.70;79.60
19258;DHT22;9763;48.780;9.212;2024-01-10T14:08:11;2.70;79.50
19258;DHT22;9763;48.780;9.212;2024-01-10T14:11:35;2.70;79.40
19258;DHT22;9763;48.780;9.212;2024-01-10T14:14:58;2.70;79.20
19258;DHT22;9763;48.780;9.212;2024-01-10T14:18:24;2.70;79.20
19258;DHT22;9763;48.780;9.212;2024-01-10T14:21:49;2.70;79.00
19258;DHT22;9763;48.780;9.212;2024-01-10T14:25:13;2.70;79.00
19258;DHT22;9763;48.780;9.212;2024-01-10T14:28:37;2.70;78.90
19258;DHT22;9763;48.780;9.212;2024-01-10T14:32:01;2.70;78.90
19258;DHT22;9763;48.780;9.212;2024-01-10T14:35:30;2.70;79.00
19258;DHT22;9763;48.780;9.212;2024-01-10T14:38:56;2.70;78.80
19258;DHT22;9763;48.780;9.212;2024-01-10T14:42:20;2.70;78.50
19258;DHT22;9763;48.780;9.212;2024-01-10T14:45:43;2.70;78.60
19258;DHT22;9763;48.780;9.212;2024-01-10T14:49:07;2.60;78.40
19258;DHT22;9763;48.780;9.212;2024-01-10T14:52:31;2.60;78.30
19258;DHT22;9763;48.780;9.212;2024-01-10T14:55:56;2.60;79.20
19258;DHT22;9763;48.780;9.212;2024-01-10T14:59:20;2.50;78.30
19258;DHT22;9763;48.780;9.212;2024-01-10T15:03:01;2.40;78.30
19258;DHT22;9763;48.780;9.212;2024-01-10T15:06:41;2.40;78.50
19258;DHT22;9763;48.780;9.212;2024-01-10T15:10:06;2.40;78.60
19258;DHT22;9763;48.780;9.212;2024-01-10T15:13:32;2.40;78.40
19258;DHT22;9763;48.780;9.212;2024-01-10T15:16:56;2.40;78.20
19258;DHT22;9763;48.780;9.212;2024-01-10T15:20:21;2.30;78.10
19258;DHT22;9763;48.780;9.212;2024-01-10T15:23:46;2.30;78.00
19258;DHT22;9763;48.780;9.212;2024-01-10T15:27:09;2.30;77.80
19258;DHT22;9763;48.780;9.212;2024-01-10T15:30:35;2.30;77.80
19258;DHT22;9763;48.780;9.212;2024-01-10T15:34:09;2.20;77.40
19258;DHT22;9763;48.780;9.212;2024-01-10T15:37:32;2.20;77.00
19258;DHT22;9763;48.780;9.212;2024-01-10T15:40:56;2.10;77.40
19258;DHT22;9763;48.780;9.212;2024-01-10T15:44:22;2.00;78.10
19258;DHT22;9763;48.780;9.212;2024-01-10T15:47:48;1.90;78.40
19258;DHT22;9763;48.780;9.212;2024-01-10T15:51:11;1.90;78.30
19258;DHT22;9763;48.780;9.212;2024-01-10T15:54:35;1.90;78.20
19258;DHT22;9763;48.780;9.212;2024-01-10T15:58:01;1.80;78.00
19258;DHT22;9763;48.780;9.212;2024-01-10T16:01:25;1.80;77.90
19258;DHT22;9763;48.780;9.212;2024-01-10T16:04:49;1.80;77.80
19258;DHT22;9763;48.780;9.212;2024-01-10T16:08:13;1.80;77.50
19258;DHT22;9763;48.780;9.212;2024-01-10T16:11:39;1.70;77.30
19258;DHT22;9763;48.780;9.212;2024-01-10T16:15:05;1.70;77.20
19258;DHT22;9763;48.780;9.212;2024-01-10T16:18:29;1.70;77.20
19258;DHT22;9763;48.780;9.212;2024-01-10T16:21:55;1.60;77.10
19258;DHT22;9763;48.780;9.212;2024-01-10T16:25:18;1.60;77.00
19258;DHT22;9763;48.780;9.212;2024-01-10T16:28:43;1.60;77.00
19258;DHT22;9763;48.780;9.212;2024-01-10T16:32:06;1.50;76.90
19258;DHT22;9763;48.780;9.212;2024-01-10T16:35:30;1.40;76.80
19258;DHT22;9763;48.780;9.212;2024-01-10T16:38:55;1.40;76.90
19258;DHT22;9763;48.780;9.212;2024-01-10T16:42:19;1.40;76.90
19258;DHT22;9763;48.780;9.212;2024-01-10T16:45:43;1.60;77.20
19258;DHT22;9763;48.780;9.212;2024-01-10T16:49:06;1.30;76.90
19258;DHT22;9763;48.780;9.212;2024-01-10T16:52:30;1.30;77.00
19258;DHT22;9763;48.780;9.212;2024-01-10T16:55:55;1.30;76.90
19258;DHT22;9763;48.780;9.212;2024-01-10T16:59:19;1.30;77.00
19258;DHT22;9763;48.780;9.212;2024-01-10T17:02:43;1.20;76.80
19258;DHT22;9763;48.780;9.212;2024-01-10T17:06:08;1.20;76.90
19258;DHT22;9763;48.780;9.212;2024-01-10T17:09:32;1.20;76.90
19258;DHT22;9763;48.780;9.212;2024-01-10T17:12:58;1.10;77.00
19258;DHT22;9763;48.780;9.212;2024-01-10T17:16:23;1.10;77.00
19258;DHT22;9763;48.780;9.212;2024-01-10T17:19:46;1.10;77.10
19258;DHT22;9763;48.780;9.212;2024-01-10T17:23:11;1.10;77.20
19258;DHT22;9763;48.780;9.212;2024-01-10T17:26:37;1.10;77.20
19258;DHT22;9763;48.780;9.212;2024-01-10T17:30:03;1.10;77.20
19258;DHT22;9763;48.780;9.212;2024-01-10T17:33:28;1.10;77.20
19258;DHT22;9763;48.780;9.212;2024-01-10T17:36:54;1.10;77.00
19258;DHT22;9763;48.780;9.212;2024-01-10T17:40:17;1.10;76.90
19258;DHT22;9763;48.780;9.212;2024-01-10T17:43:41;1.00;76.70
19258;DHT22;9763;48.780;9.212;2024-01-10T17:47:06;1.00;76.80
19258;DHT22;9763;48.780;9.212;2024-01-10T17:50:31;1.00;76.70
19258;DHT22;9763;48.780;9.212;2024-01-10T17:53:55;1.00;76.50
19258;DHT22;9763;48.780;9.212;2024-01-10T17:57:18;1.00;76.50
19258;DHT22;9763;48.780;9.212;2024-01-10T18:00:45;0.90;76.60
19258;DHT22;9763;48.780;9.212;2024-01-10T18:04:10;0.90;76.70
19258;DHT22;9763;48.780;9.212;2024-01-10T18:07:36;0.90;76.80
19258;DHT22;9763;48.780;9.212;2024-01-10T18:10:59;0.80;76.80
19258;DHT22;9763;48.780;9.212;2024-01-10T18:14:23;0.80;76.80
19258;DHT22;9763;48.780;9.212;2024-01-10T18:17:47;0.80;76.80
19258;DHT22;9763;48.780;9.212;2024-01-10T18:21:12;0.80;76.80
19258;DHT22;9763;48.780;9.212;2024-01-10T18:24:37;0.80;76.90
19258;DHT22;9763;48.780;9.212;2024-01-10T18:28:00;0.80;76.90
19258;DHT22;9763;48.780;9.212;2024-01-10T18:31:24;0.80;76.90
19258;DHT22;9763;48.780;9.212;2024-01-10T18:34:47;0.80;76.80
19258;DHT22;9763;48.780;9.212;2024-01-10T18:38:12;0.80;76.70
19258;DHT22;9763;48.780;9.212;2024-01-10T18:41:39;0.80;76.60
19258;DHT22;9763;48.780;9.212;2024-01-10T18:45:04;0.80;76.50
19258;DHT22;9763;48.780;9.212;2024-01-10T18:48:28;0.80;76.60
19258;DHT22;9763;48.780;9.212;2024-01-10T18:51:52;0.70;76.40
19258;DHT22;9763;48.780;9.212;2024-01-10T18:55:20;0.70;76.50
19258;DHT22;9763;48.780;9.212;2024-01-10T18:58:43;0.70;76.80
19258;DHT22;9763;48.780;9.212;2024-01-10T19:02:07;0.70;76.80
19258;DHT22;9763;48.780;9.212;2024-01-10T19:05:31;0.70;76.80
19258;DHT22;9763;48.780;9.212;2024-01-10T19:08:55;0.70;76.90
19258;DHT22;9763;48.780;9.212;2024-01-10T19:12:20;0.70;76.70
19258;DHT22;9763;48.780;9.212;2024-01-10T19:15:43;0.70;76.70
19258;DHT22;9763;48.780;9.212;2024-01-10T19:19:07;0.60;76.40
19258;DHT22;9763;48.780;9.212;2024-01-10T19:22:31;0.60;76.40
19258;DHT22;9763;48.780;9.212;2024-01-10T19:25:54;0.60;76.40
19258;DHT22;9763;48.780;9.212;2024-01-10T19:29:21;0.60;76.40
19258;DHT22;9763;48.780;9.212;2024-01-10T19:32:44;0.50;77.10
19258;DHT22;9763;48.780;9.212;2024-01-10T19:36:08;0.50;76.40
19258;DHT22;9763;48.780;9.212;2024-01-10T19:39:32;0.50;76.30
19258;DHT22;9763;48.780;9.212;2024-01-10T19:42:56;0.50;76.30
19258;DHT22;9763;48.780;9.212;2024-01-10T19:46:21;0.50;76.20
19258;DHT22;9763;48.780;9.212;2024-01-10T19:49:45;0.50;76.30
19258;DHT22;9763;48.780;9.212;2024-01-10T19:53:08;0.50;76.30
19258;DHT22;9763;48.780;9.212;2024-01-10T19:56:32;0.50;76.30
19258;DHT22;9763;48.780;9.212;2024-01-10T19:59:56;0.40;76.30
19258;DHT22;9763;48.780;9.212;2024-01-10T20:03:21;0.40;76.20
19258;DHT22;9763;48.780;9.212;2024-01-10T20:06:45;0.40;76.20
19258;DHT22;9763;48.780;9.212;2024-01-10T20:10:09;0.40;76.20
19258;DHT22;9763;48.780;9.212;2024-01-10T20:13:34;0.40;76.30
19258;DHT22;9763;48.780;9.212;2024-01-10T20:16:59;0.40;76.10
19258;DHT22;9763;48.780;9.212;2024-01-10T20:20:25;0.30;76.00
19258;DHT22;9763;48.780;9.212;2024-01-10T20:23:51;0.30;75.90
19258;DHT22;9763;48.780;9.212;2024-01-10T20:27:15;0.30;75.90
19258;DHT22;9763;48.780;9.212;2024-01-10T20:30:39;0.30;76.10
19258;DHT22;9763;48.780;9.212;2024-01-10T20:34:03;0.30;76.20
19258;DHT22;9763;48.780;9.212;2024-01-10T20:37:28;-0.80;75.00
19258;DHT22;9763;48.780;9.212;2024-01-10T20:40:52;0.30;76.10
19258;DHT22;9763;48.780;9.212;2024-01-10T20:44:16;0.20;75.90
19258;DHT22;9763;48.780;9.212;2024-01-10T20:47:40;0.20;75.90
19258;DHT22;9763;48.780;9.212;2024-01-10T20:51:05;0.20;75.80
19258;DHT22;9763;48.780;9.212;2024-01-10T20:54:30;0.20;75.70
19258;DHT22;9763;48.780;9.212;2024-01-10T20:57:57;0.20;75.60
19258;DHT22;9763;48.780;9.212;2024-01-10T21:01:22;0.20;75.80
19258;DHT22;9763;48.780;9.212;2024-01-10T21:04:46;0.10;75.70
19258;DHT22;9763;48.780;9.212;2024-01-10T21:08:10;0.10;75.70
19258;DHT22;9763;48.780;9.212;2024-01-10T21:11:36;0.10;75.50
19258;DHT22;9763;48.780;9.212;2024-01-10T21:14:59;0.10;75.70
19258;DHT22;9763;48.780;9.212;2024-01-10T21:18:24;0.00;75.60
19258;DHT22;9763;48.780;9.212;2024-01-10T21:21:48;0.00;75.90
19258;DHT22;9763;48.780;9.212;2024-01-10T21:25:12;0.00;75.70
19258;DHT22;9763;48.780;9.212;2024-01-10T21:28:37;0.00;75.80
19258;DHT22;9763;48.780;9.212;2024-01-10T21:32:00;0.00;75.90
19258;DHT22;9763;48.780;9.212;2024-01-10T21:35:24;0.00;75.90
19258;DHT22;9763;48.780;9.212;2024-01-10T21:38:48;0.00;75.90
19258;DHT22;9763;48.780;9.212;2024-01-10T21:42:11;-0.10;75.80
19258;DHT22;9763;48.780;9.212;2024-01-10T21:45:36;-0.10;75.70
19258;DHT22;9763;48.780;9.212;2024-01-10T21:49:00;0.00;75.80
19258;DHT22;9763;48.780;9.212;2024-01-10T21:52:24;0.00;75.90
19258;DHT22;9763;48.780;9.212;2024-01-10T21:55:48;-0.10;75.80
19258;DHT22;9763;48.780;9.212;2024-01-10T21:59:12;-0.10;75.60
19258;DHT22;9763;48.780;9.212;2024-01-10T22:02:37;-0.10;75.60
19258;DHT22;9763;48.780;9.212;2024-01-10T22:06:00;-0.10;75.50
19258;DHT22;9763;48.780;9.212;2024-01-10T22:09:24;-0.20;75.60
19258;DHT22;9763;48.780;9.212;2024-01-10T22:12:49;-0.10;75.70
19258;DHT22;9763;48.780;9.212;2024-01-10T22:16:13;0.10;76.00
19258;DHT22;9763;48.780;9.212;2024-01-10T22:19:37;-0.20;75.60